createdAt,value
2022-10-13T03:54:49.514Z,20.12
2022-10-13T03:59:53.931Z,20.75
2022-10-13T04:04:55.628Z,23.47
2022-10-13T04:09:59.454Z,20.17
2022-10-13T04:15:01.225Z,20.67
2022-10-13T04:20:03.553Z,20.77
2022-10-13T04:25:08.159Z,21.27
2022-10-13T04:30:13.468Z,24.48
2022-10-13T04:35:15.485Z,21.77
2022-10-13T04:40:18.610Z,23.90
2022-10-13T04:45:20.263Z,22.25
2022-10-13T04:50:22.168Z,21.48
2022-10-13T04:55:25.329Z,20.50
2022-10-13T05:00:27.129Z,20.48
2022-10-13T05:05:28.904Z,20.55
2022-10-13T05:10:34.925Z,18.67
2022-10-13T05:15:38.952Z,18.45
2022-10-13T05:20:40.647Z,21.40
2022-10-13T05:25:43.806Z,19.70
2022-10-13T05:30:45.475Z,19.37
2022-10-13T05:35:47.140Z,21.12
2022-10-13T05:40:50.209Z,19.55
2022-10-13T05:45:51.866Z,17.87
2022-10-13T05:50:55.465Z,21.83
2022-10-13T05:56:03.776Z,21.30
2022-10-13T06:01:06.973Z,20.27
2022-10-13T06:06:09.370Z,19.40
2022-10-13T06:11:12.474Z,20.27
2022-10-13T06:16:14.144Z,20.92
2022-10-13T06:21:15.809Z,19.52
2022-10-13T06:26:18.986Z,21.48
2022-10-13T06:31:20.705Z,20.92
2022-10-13T06:36:22.418Z,19.95
2022-10-13T06:41:25.500Z,19.62
2022-10-13T06:46:27.149Z,20.85
2022-10-13T06:51:28.891Z,19.87
2022-10-13T06:56:32.057Z,21.33
2022-10-13T07:01:36.758Z,21.70
2022-10-13T07:06:42.392Z,19.77
2022-10-13T07:11:45.939Z,18.00
2022-10-13T07:16:47.909Z,18.27
2022-10-13T07:21:49.621Z,19.67
2022-10-13T07:26:52.769Z,21.15
2022-10-13T07:31:54.477Z,21.87
2022-10-13T07:36:56.577Z,21.23
2022-10-13T07:41:59.614Z,20.12
2022-10-13T07:47:01.355Z,20.62
2022-10-13T07:52:03.309Z,21.12
2022-10-13T07:57:06.411Z,23.05
2022-10-13T08:02:09.328Z,25.42
2022-10-13T08:07:11.117Z,23.90
2022-10-13T08:12:14.172Z,23.33
2022-10-13T08:17:16.034Z,25.12
2022-10-13T08:22:17.747Z,23.25
2022-10-13T08:27:22.789Z,22.65
2022-10-13T08:32:24.622Z,24.37
2022-10-13T08:37:26.265Z,23.20
2022-10-13T08:42:29.522Z,24.87
2022-10-13T08:47:43.689Z,25.20
2022-10-13T08:52:49.377Z,25.75
2022-10-13T08:57:52.611Z,24.50
2022-10-13T09:02:57.662Z,25.73
2022-10-13T09:07:59.859Z,25.10
2022-10-13T09:13:03.309Z,22.73
2022-10-13T09:18:10.824Z,25.60
2022-10-13T09:23:19.483Z,27.00
2022-10-13T09:28:24.716Z,26.27
2022-10-13T09:38:28.937Z,26.95
2022-10-13T09:43:33.588Z,25.95
2022-10-13T09:48:37.554Z,27.25
2022-10-13T09:53:40.887Z,26.15
2022-10-13T09:58:48.848Z,27.98
2022-10-13T10:03:51.448Z,27.30
2022-10-13T10:09:14.368Z,27.55
2022-10-13T10:14:49.510Z,29.70
2022-10-13T10:20:09.213Z,32.37
2022-10-13T10:25:22.660Z,30.48
2022-10-13T10:30:26.547Z,30.98
2022-10-13T10:35:44.175Z,32.97
2022-10-13T10:40:58.278Z,32.15
2022-10-13T10:46:01.483Z,31.37
2022-10-13T10:51:07.687Z,31.67
2022-10-13T10:56:18.926Z,32.13
2022-10-13T11:01:32.973Z,31.23
2022-10-13T11:06:36.297Z,32.67
2022-10-13T11:11:40.612Z,30.00
2022-10-13T11:17:10.049Z,32.53
2022-10-13T11:22:18.140Z,31.37
2022-10-13T11:27:26.009Z,31.90
2022-10-13T11:32:47.704Z,29.52
2022-10-13T11:38:09.250Z,29.27
2022-10-13T11:43:43.981Z,27.27
2022-10-13T11:49:33.692Z,28.05
2022-10-13T11:54:44.150Z,29.05
2022-10-13T11:59:47.177Z,26.42
2022-10-13T12:05:00.955Z,25.92
2022-10-13T12:10:07.861Z,26.40
2022-10-13T12:15:29.733Z,25.75
2022-10-13T12:20:32.669Z,27.27
2022-10-13T12:25:47.901Z,26.48
2022-10-13T12:30:52.980Z,27.75
2022-10-13T12:35:55.049Z,26.98
2022-10-13T12:40:58.148Z,27.20
2022-10-13T12:45:59.865Z,28.70
2022-10-13T12:51:14.452Z,26.00
2022-10-13T12:56:26.308Z,25.80
2022-10-13T13:01:32.822Z,25.37
2022-10-13T13:06:37.006Z,25.20
2022-10-13T13:11:41.308Z,23.00
2022-10-13T13:17:10.975Z,24.15
2022-10-13T13:22:12.942Z,23.40
2022-10-13T13:27:20.676Z,22.75
2022-10-13T13:32:24.938Z,21.30
2022-10-13T13:37:30.586Z,22.05
2022-10-13T13:42:33.897Z,21.65
2022-10-13T13:47:35.856Z,21.95
2022-10-13T13:52:37.500Z,21.58
2022-10-13T13:57:41.627Z,22.62
2022-10-13T14:02:44.357Z,21.30
2022-10-13T14:07:46.124Z,22.23
2022-10-13T14:12:49.258Z,23.15
2022-10-13T14:17:52.105Z,23.73
2022-10-13T14:22:54.060Z,22.13
2022-10-13T14:28:29.541Z,22.45
2022-10-13T14:33:31.356Z,24.42
2022-10-13T14:38:36.186Z,22.33
2022-10-13T14:43:39.433Z,24.67
2022-10-13T14:48:41.459Z,23.40
2022-10-13T14:53:45.041Z,23.10
2022-10-13T14:58:49.304Z,24.67
2022-10-13T15:09:12.645Z,26.00
2022-10-13T15:14:38.206Z,26.80
2022-10-13T15:19:39.965Z,26.75
2022-10-13T15:24:43.923Z,26.55
2022-10-13T15:29:47.024Z,28.33
2022-10-13T15:34:48.903Z,28.85
2022-10-13T15:39:56.002Z,29.25
2022-10-13T15:45:15.550Z,31.67
2022-10-13T15:50:17.286Z,32.45
2022-10-13T15:55:19.203Z,31.42
2022-10-13T16:00:22.364Z,34.40
2022-10-13T16:05:24.190Z,35.92
2022-10-13T16:10:25.929Z,36.85
2022-10-13T16:15:28.978Z,33.13
2022-10-13T16:20:30.755Z,35.40
2022-10-13T16:25:32.587Z,38.65
2022-10-13T16:30:37.501Z,36.00
2022-10-13T16:35:39.236Z,36.83
2022-10-13T16:40:40.907Z,36.50
2022-10-13T16:45:59.093Z,34.13
2022-10-13T16:51:05.752Z,35.25
2022-10-13T16:56:07.696Z,38.05
2022-10-13T17:01:12.195Z,37.72
2022-10-13T17:06:14.785Z,35.50
2022-10-13T17:11:18.930Z,40.35
2022-10-13T17:16:22.041Z,38.40
2022-10-13T17:38:06.160Z,35.90
2022-10-13T17:43:25.645Z,40.92
2022-10-13T17:48:28.177Z,42.13
2022-10-13T18:04:43.003Z,47.05
2022-10-13T19:20:59.130Z,39.42
2022-10-13T20:34:18.126Z,26.23
2022-10-13T20:39:20.211Z,31.70
2022-10-13T20:44:22.073Z,28.60
2022-10-13T20:49:33.622Z,29.00
2022-10-13T21:11:24.827Z,21.40
2022-10-13T21:16:46.567Z,22.95
2022-10-13T21:21:48.535Z,22.65
2022-10-13T21:26:50.313Z,21.95
2022-10-13T21:31:57.056Z,23.42
2022-10-13T21:36:58.916Z,24.50
2022-10-13T21:42:00.946Z,24.05
2022-10-13T21:47:04.130Z,23.25
2022-10-13T21:52:05.784Z,23.60
2022-10-13T21:57:07.616Z,23.98
2022-10-13T22:02:10.985Z,24.90
2022-10-13T22:07:12.679Z,25.45
2022-10-13T22:12:14.374Z,25.48
2022-10-13T22:17:17.495Z,26.52
2022-10-13T22:22:19.246Z,24.12
2022-10-13T22:27:21.205Z,24.90
2022-10-13T22:32:24.546Z,24.63
2022-10-13T22:37:26.233Z,22.15
2022-10-13T22:42:27.899Z,23.65
2022-10-13T22:47:30.950Z,22.90
2022-10-13T22:52:32.726Z,24.10
2022-10-13T22:57:34.425Z,26.67
2022-10-13T23:02:37.564Z,26.12
2022-10-13T23:07:39.183Z,26.30
2022-10-13T23:12:40.901Z,26.87
2022-10-13T23:17:44.081Z,27.98
2022-10-13T23:22:45.803Z,27.23
2022-10-13T23:27:47.482Z,27.55
2022-10-13T23:32:50.628Z,27.25
2022-10-13T23:37:52.566Z,27.52
2022-10-13T23:42:54.316Z,28.58
2022-10-13T23:47:57.493Z,29.83
2022-10-13T23:52:59.374Z,27.67
2022-10-13T23:58:01.097Z,28.20
